sensor_id;sensor_type;location;lat;lon;timestamp;pressure;altitude;pressure_sealevel;temperature;humidity
34925;BME280;21130;51.728;8.748;2024-03-29T00:00:22;98350.72;;;7.44;100.00
34925;BME280;21130;51.728;8.748;2024-03-29T00:02:48;98354.88;;;7.41;100.00
34925;BME280;21130;51.728;8.748;2024-03-29T00:05:13;98353.75;;;7.42;100.00
34925;BME280;21130;51.728;8.748;2024-03-29T00:07:39;98345.22;;;7.44;100.00
34925;BME280;21130;51.728;8.748;2024-03-29T00:10:05;98347.13;;;7.58;100.00
34925;BME280;21130;51.728;8.748;2024-03-29T00:12:32;98348.22;;;7.68;100.00
34925;BME280;21130;51.728;8.748;2024-03-29T00:14:57;98350.41;;;7.71;100.00
34925;BME280;21130;51.728;8.748;2024-03-29T00:17:23;98353.75;;;7.68;100.00
34925;BME280;21130;51.728;8.748;2024-03-29T00:19:49;98352.06;;;7.67;100.00
34925;BME280;21130;51.728;8.748;2024-03-29T00:22:15;98351.50;;;7.65;100.00
34925;BME280;21130;51.728;8.748;2024-03-29T00:24:41;98350.13;;;7.72;100.00
34925;BME280;21130;51.728;8.748;2024-03-29T00:27:07;98354.81;;;7.67;100.00
34925;BME280;21130;51.728;8.748;2024-03-29T00:29:34;98350.44;;;7.66;100.00
34925;BME280;21130;51.728;8.748;2024-03-29T00:32:00;98345.47;;;7.68;100.00
34925;BME280;21130;51.728;8.748;2024-03-29T00:34:25;98347.69;;;7.61;100.00
34925;BME280;21130;51.728;8.748;2024-03-29T00:36:52;98339.09;;;7.62;100.00
34925;BME280;21130;51.728;8.748;2024-03-29T00:39:17;98335.81;;;7.65;100.00
34925;BME280;21130;51.728;8.748;2024-03-29T00:41:43;98346.00;;;7.75;100.00
34925;BME280;21130;51.728;8.748;2024-03-29T00:44:08;98334.44;;;7.63;100.00
34925;BME280;21130;51.728;8.748;2024-03-29T00:46:35;98333.88;;;7.66;100.00
34925;BME280;21130;51.728;8.748;2024-03-29T00:49:01;98342.72;;;7.63;100.00
34925;BME280;21130;51.728;8.748;2024-03-29T00:51:26;98339.09;;;7.62;100.00
34925;BME280;21130;51.728;8.748;2024-03-29T00:53:52;98323.66;;;7.51;100.00
34925;BME280;21130;51.728;8.748;2024-03-29T00:56:17;98324.25;;;7.48;100.00
34925;BME280;21130;51.728;8.748;2024-03-29T00:58:43;98313.75;;;7.50;100.00
34925;BME280;21130;51.728;8.748;2024-03-29T01:01:09;98321.75;;;7.46;100.00
34925;BME280;21130;51.728;8.748;2024-03-29T01:03:35;98307.41;;;7.39;100.00
34925;BME280;21130;51.728;8.748;2024-03-29T01:06:01;98310.16;;;7.29;100.00
34925;BME280;21130;51.728;8.748;2024-03-29T01:08:26;98311.28;;;7.28;100.00
34925;BME280;21130;51.728;8.748;2024-03-29T01:10:52;98312.13;;;7.23;100.00
34925;BME280;21130;51.728;8.748;2024-03-29T01:13:17;98314.59;;;7.30;100.00
34925;BME280;21130;51.728;8.748;2024-03-29T01:15:43;98312.13;;;7.23;100.00
34925;BME280;21130;51.728;8.748;2024-03-29T01:18:08;98314.31;;;7.26;100.00
34925;BME280;21130;51.728;8.748;2024-03-29T01:20:35;98318.19;;;7.20;100.00
34925;BME280;21130;51.728;8.748;2024-03-29T01:23:01;98323.72;;;7.20;100.00
34925;BME280;21130;51.728;8.748;2024-03-29T01:25:27;98341.91;;;7.21;100.00
34925;BME280;21130;51.728;8.748;2024-03-29T01:27:52;98336.38;;;7.21;100.00
34925;BME280;21130;51.728;8.748;2024-03-29T01:30:18;98339.41;;;7.14;100.00
34925;BME280;21130;51.728;8.748;2024-03-29T01:32:44;98341.09;;;7.10;100.00
34925;BME280;21130;51.728;8.748;2024-03-29T01:35:09;98342.47;;;7.13;100.00
34925;BME280;21130;51.728;8.748;2024-03-29T01:37:36;98330.88;;;7.11;100.00
34925;BME280;21130;51.728;8.748;2024-03-29T01:40:02;98333.63;;;7.06;100.00
34925;BME280;21130;51.728;8.748;2024-03-29T01:42:27;98329.75;;;7.02;100.00
34925;BME280;21130;51.728;8.748;2024-03-29T01:44:53;98316.81;;;7.02;100.00
34925;BME280;21130;51.728;8.748;2024-03-29T01:47:19;98305.22;;;7.00;100.00
34925;BME280;21130;51.728;8.748;2024-03-29T01:49:46;98316.81;;;7.07;100.00
34925;BME280;21130;51.728;8.748;2024-03-29T01:52:13;98309.06;;;6.99;100.00
34925;BME280;21130;51.728;8.748;2024-03-29T01:54:42;98309.94;;;7.05;100.00
34925;BME280;21130;51.728;8.748;2024-03-29T01:57:08;98317.09;;;7.06;100.00
34925;BME280;21130;51.728;8.748;2024-03-29T01:59:35;98333.63;;;6.96;100.00
34925;BME280;21130;51.728;8.748;2024-03-29T02:02:04;98328.94;;;6.91;100.00
34925;BME280;21130;51.728;8.748;2024-03-29T02:04:31;98329.75;;;6.91;100.00
34925;BME280;21130;51.728;8.748;2024-03-29T02:06:58;98331.13;;;6.89;100.00
34925;BME280;21130;51.728;8.748;2024-03-29T02:09:24;98324.78;;;6.78;100.00
34925;BME280;21130;51.728;8.748;2024-03-29T02:11:52;98322.84;;;6.68;100.00
34925;BME280;21130;51.728;8.748;2024-03-29T02:14:18;98324.22;;;6.71;100.00
34925;BME280;21130;51.728;8.748;2024-03-29T02:16:45;98324.47;;;6.69;100.00
34925;BME280;21130;51.728;8.748;2024-03-29T02:19:11;98321.72;;;6.59;100.00
34925;BME280;21130;51.728;8.748;2024-03-29T02:21:42;98328.31;;;6.53;100.00
34925;BME280;21130;51.728;8.748;2024-03-29T02:24:12;98319.50;;;6.51;100.00
34925;BME280;21130;51.728;8.748;2024-03-29T02:26:41;98328.56;;;6.46;100.00
34925;BME280;21130;51.728;8.748;2024-03-29T02:29:09;98308.75;;;6.49;100.00
34925;BME280;21130;51.728;8.748;2024-03-29T02:31:35;98307.91;;;6.54;100.00
34925;BME280;21130;51.728;8.748;2024-03-29T02:34:02;98332.47;;;6.56;100.00
34925;BME280;21130;51.728;8.748;2024-03-29T02:36:28;98333.28;;;6.56;100.00
34925;BME280;21130;51.728;8.748;2024-03-29T02:38:54;98307.41;;;6.57;100.00
34925;BME280;21130;51.728;8.748;2024-03-29T02:41:22;98297.47;;;6.56;100.00
34925;BME280;21130;51.728;8.748;2024-03-29T02:43:51;98274.84;;;6.64;100.00
34925;BME280;21130;51.728;8.748;2024-03-29T02:46:18;98280.94;;;6.71;100.00
34925;BME280;21130;51.728;8.748;2024-03-29T02:48:44;98263.88;;;6.75;100.00
34925;BME280;21130;51.728;8.748;2024-03-29T02:51:10;98275.41;;;6.82;100.00
34925;BME280;21130;51.728;8.748;2024-03-29T02:53:36;98282.06;;;6.86;100.00
34925;BME280;21130;51.728;8.748;2024-03-29T02:56:03;98278.75;;;6.89;100.00
34925;BME280;21130;51.728;8.748;2024-03-29T02:58:31;98277.34;;;6.91;100.00
34925;BME280;21130;51.728;8.748;2024-03-29T03:00:56;98283.44;;;6.93;100.00
34925;BME280;21130;51.728;8.748;2024-03-29T03:03:27;98274.91;;;6.95;100.00
34925;BME280;21130;51.728;8.748;2024-03-29T03:05:52;98289.50;;;6.96;100.00
34925;BME280;21130;51.728;8.748;2024-03-29T03:08:20;98283.72;;;7.02;100.00
34925;BME280;21130;51.728;8.748;2024-03-29T03:11:04;98290.88;;;7.13;100.00
34925;BME280;21130;51.728;8.748;2024-03-29T03:13:32;98281.47;;;7.20;100.00
34925;BME280;21130;51.728;8.748;2024-03-29T03:15:58;98269.91;;;7.23;100.00
34925;BME280;21130;51.728;8.748;2024-03-29T03:18:24;98271.53;;;7.29;100.00
34925;BME280;21130;51.728;8.748;2024-03-29T03:20:52;98279.53;;;7.35;100.00
34925;BME280;21130;51.728;8.748;2024-03-29T03:23:17;98275.66;;;7.36;100.00
34925;BME280;21130;51.728;8.748;2024-03-29T03:25:45;98277.59;;;7.41;100.00
34925;BME280;21130;51.728;8.748;2024-03-29T03:28:10;98275.38;;;7.43;100.00
34925;BME280;21130;51.728;8.748;2024-03-29T03:30:40;98283.13;;;7.41;100.00
34925;BME280;21130;51.728;8.748;2024-03-29T03:33:05;98275.66;;;7.47;100.00
34925;BME280;21130;51.728;8.748;2024-03-29T03:35:32;98285.59;;;7.48;100.00
34925;BME280;21130;51.728;8.748;2024-03-29T03:37:57;98264.06;;;7.50;100.00
34925;BME280;21130;51.728;8.748;2024-03-29T03:40:23;98257.97;;;7.53;100.00
34925;BME280;21130;51.728;8.748;2024-03-29T03:42:49;98278.13;;;7.53;100.00
34925;BME280;21130;51.728;8.748;2024-03-29T03:45:15;98291.38;;;7.51;100.00
34925;BME280;21130;51.728;8.748;2024-03-29T03:47:42;98290.56;;;7.51;100.00
34925;BME280;21130;51.728;8.748;2024-03-29T03:50:09;98291.38;;;7.51;100.00
34925;BME280;21130;51.728;8.748;2024-03-29T03:52:34;98301.31;;;7.52;100.00
34925;BME280;21130;51.728;8.748;2024-03-29T03:55:01;98313.72;;;7.60;100.00
34925;BME280;21130;51.728;8.748;2024-03-29T03:57:29;98310.66;;;7.62;100.00
34925;BME280;21130;51.728;8.748;2024-03-29T03:59:56;98312.06;;;7.59;100.00
34925;BME280;21130;51.728;8.748;2024-03-29T04:02:21;98315.94;;;7.58;100.00
34925;BME280;21130;51.728;8.748;2024-03-29T04:04:49;98324.47;;;7.56;100.00
34925;BME280;21130;51.728;8.748;2024-03-29T04:07:15;98319.28;;;7.50;100.00
34925;BME280;21130;51.728;8.748;2024-03-29T04:09:41;98334.44;;;7.52;100.00
34925;BME280;21130;51.728;8.748;2024-03-29T04:12:07;98325.63;;;7.45;100.00
34925;BME280;21130;51.728;8.748;2024-03-29T04:14:33;98324.25;;;7.48;100.00
34925;BME280;21130;51.728;8.748;2024-03-29T04:16:59;98330.84;;;7.42;100.00
34925;BME280;21130;51.728;8.748;2024-03-29T04:19:25;98333.59;;;7.42;100.00
34925;BME280;21130;51.728;8.748;2024-03-29T04:21:53;98336.38;;;7.36;100.00
34925;BME280;21130;51.728;8.748;2024-03-29T04:24:19;98338.06;;;7.38;100.00
34925;BME280;21130;51.728;8.748;2024-03-29T04:26:46;98347.72;;;7.35;100.00
34925;BME280;21130;51.728;8.748;2024-03-29T04:29:12;98346.03;;;7.34;100.00
34925;BME280;21130;51.728;8.748;2024-03-29T04:31:39;98355.97;;;7.40;100.00
34925;BME280;21130;51.728;8.748;2024-03-29T04:34:06;98356.50;;;7.42;100.00
34925;BME280;21130;51.728;8.748;2024-03-29T04:36:32;98348.78;;;7.49;100.00
34925;BME280;21130;51.728;8.748;2024-03-29T04:38:59;98347.94;;;7.54;100.00
34925;BME280;21130;51.728;8.748;2024-03-29T04:41:26;98352.66;;;7.58;100.00
34925;BME280;21130;51.728;8.748;2024-03-29T04:43:52;98363.13;;;7.62;100.00
34925;BME280;21130;51.728;8.748;2024-03-29T04:46:19;98354.56;;;7.68;100.00
34925;BME280;21130;51.728;8.748;2024-03-29T04:48:45;98347.66;;;7.71;100.00
34925;BME280;21130;51.728;8.748;2024-03-29T04:51:12;98364.47;;;7.74;100.00
34925;BME280;21130;51.728;8.748;2024-03-29T04:53:39;98359.25;;;7.78;100.00
34925;BME280;21130;51.728;8.748;2024-03-29T04:56:07;98362.00;;;7.78;100.00
34925;BME280;21130;51.728;8.748;2024-03-29T04:58:33;98356.19;;;7.79;100.00
34925;BME280;21130;51.728;8.748;2024-03-29T05:01:00;98353.97;;;7.76;100.00
34925;BME280;21130;51.728;8.748;2024-03-29T05:03:26;98347.09;;;7.74;100.00
34925;BME280;21130;51.728;8.748;2024-03-29T05:05:53;98339.06;;;7.72;100.00
34925;BME280;21130;51.728;8.748;2024-03-29T05:08:20;98348.22;;;7.73;100.00
34925;BME280;21130;51.728;8.748;2024-03-29T05:10:47;98360.34;;;7.72;100.00
34925;BME280;21130;51.728;8.748;2024-03-29T05:13:15;98351.78;;;7.73;100.00
34925;BME280;21130;51.728;8.748;2024-03-29T05:15:42;98347.34;;;7.72;100.00
34925;BME280;21130;51.728;8.748;2024-03-29T05:21:30;98331.91;;;7.71;100.00
34925;BME280;21130;51.728;8.748;2024-03-29T05:23:57;98330.53;;;7.69;100.00
34925;BME280;21130;51.728;8.748;2024-03-29T05:26:23;98331.66;;;7.68;100.00
34925;BME280;21130;51.728;8.748;2024-03-29T05:28:51;98329.72;;;7.68;100.00
34925;BME280;21130;51.728;8.748;2024-03-29T05:31:19;98322.25;;;7.64;100.00
34925;BME280;21130;51.728;8.748;2024-03-29T05:33:45;98322.81;;;7.71;100.00
34925;BME280;21130;51.728;8.748;2024-03-29T05:36:14;98322.50;;;7.72;100.00
34925;BME280;21130;51.728;8.748;2024-03-29T05:38:40;98327.19;;;7.77;100.00
34925;BME280;21130;51.728;8.748;2024-03-29T05:41:07;98333.81;;;7.81;100.00
34925;BME280;21130;51.728;8.748;2024-03-29T05:43:33;98334.94;;;7.80;100.00
34925;BME280;21130;51.728;8.748;2024-03-29T05:46:01;98330.50;;;7.79;100.00
34925;BME280;21130;51.728;8.748;2024-03-29T05:48:28;98323.91;;;7.80;100.00
34925;BME280;21130;51.728;8.748;2024-03-29T05:50:55;98318.09;;;7.76;100.00
34925;BME280;21130;51.728;8.748;2024-03-29T05:53:21;98311.19;;;7.74;100.00
34925;BME280;21130;51.728;8.748;2024-03-29T05:55:48;98303.78;;;7.59;100.00
34925;BME280;21130;51.728;8.748;2024-03-29T05:58:14;98305.16;;;7.56;100.00
34925;BME280;21130;51.728;8.748;2024-03-29T06:00:43;98289.44;;;7.47;100.00
34925;BME280;21130;51.728;8.748;2024-03-29T06:03:10;98283.09;;;7.46;100.00
34925;BME280;21130;51.728;8.748;2024-03-29T06:05:39;98287.00;;;7.40;100.00
34925;BME280;21130;51.728;8.748;2024-03-29T06:08:06;98284.78;;;7.37;100.00
34925;BME280;21130;51.728;8.748;2024-03-29T06:10:33;98275.66;;;7.36;100.00
34925;BME280;21130;51.728;8.748;2024-03-29T06:12:59;98281.47;;;7.35;100.00
34925;BME280;21130;51.728;8.748;2024-03-29T06:15:32;98286.16;;;7.29;100.00
34925;BME280;21130;51.728;8.748;2024-03-29T06:18:18;98276.50;;;7.27;100.00
34925;BME280;21130;51.728;8.748;2024-03-29T06:20:44;98284.25;;;7.25;100.00
34925;BME280;21130;51.728;8.748;2024-03-29T06:23:11;98274.31;;;7.24;100.00
34925;BME280;21130;51.728;8.748;2024-03-29T06:25:38;98287.00;;;7.25;100.00
34925;BME280;21130;51.728;8.748;2024-03-29T06:28:05;98296.66;;;7.22;100.00
34925;BME280;21130;51.728;8.748;2024-03-29T06:30:31;98285.59;;;7.22;100.00
34925;BME280;21130;51.728;8.748;2024-03-29T06:32:58;98271.00;;;7.27;100.00
34925;BME280;21130;51.728;8.748;2024-03-29T06:35:29;98270.72;;;7.23;100.00
34925;BME280;21130;51.728;8.748;2024-03-29T06:37:56;98265.75;;;7.25;100.00
34925;BME280;21130;51.728;8.748;2024-03-29T06:40:22;98260.25;;;7.25;100.00
34925;BME280;21130;51.728;8.748;2024-03-29T06:42:49;98256.94;;;7.28;100.00
34925;BME280;21130;51.728;8.748;2024-03-29T06:45:16;98248.91;;;7.27;100.00
34925;BME280;21130;51.728;8.748;2024-03-29T06:47:42;98245.34;;;7.26;100.00
34925;BME280;21130;51.728;8.748;2024-03-29T06:50:09;98243.69;;;7.30;100.00
34925;BME280;21130;51.728;8.748;2024-03-29T06:52:37;98251.13;;;7.35;100.00
34925;BME280;21130;51.728;8.748;2024-03-29T06:55:03;98250.00;;;7.36;100.00
34925;BME280;21130;51.728;8.748;2024-03-29T06:57:30;98258.84;;;7.38;100.00
34925;BME280;21130;51.728;8.748;2024-03-29T06:59:57;98247.25;;;7.41;100.00
34925;BME280;21130;51.728;8.748;2024-03-29T07:02:23;98242.81;;;7.45;100.00
34925;BME280;21130;51.728;8.748;2024-03-29T07:04:50;98232.84;;;7.49;100.00
34925;BME280;21130;51.728;8.748;2024-03-29T07:07:16;98237.28;;;7.50;100.00
34925;BME280;21130;51.728;8.748;2024-03-29T07:09:44;98241.66;;;7.56;100.00
34925;BME280;21130;51.728;8.748;2024-03-29T07:12:10;98243.06;;;7.54;100.00
34925;BME280;21130;51.728;8.748;2024-03-29T07:14:37;98254.38;;;7.57;100.00
34925;BME280;21130;51.728;8.748;2024-03-29T07:17:03;98249.38;;;7.60;100.00
34925;BME280;21130;51.728;8.748;2024-03-29T07:19:30;98256.56;;;7.66;100.00
34925;BME280;21130;51.728;8.748;2024-03-29T07:21:56;98252.69;;;7.67;100.00
34925;BME280;21130;51.728;8.748;2024-03-29T07:24:22;98238.84;;;7.72;100.00
34925;BME280;21130;51.728;8.748;2024-03-29T07:26:50;98248.25;;;7.71;100.00
34925;BME280;21130;51.728;8.748;2024-03-29T07:29:16;98249.66;;;7.68;100.00
34925;BME280;21130;51.728;8.748;2024-03-29T07:31:43;98264.56;;;7.62;100.00
34925;BME280;21130;51.728;8.748;2024-03-29T07:34:09;98246.66;;;7.54;100.00
34925;BME280;21130;51.728;8.748;2024-03-29T07:36:36;98257.44;;;7.46;100.00
34925;BME280;21130;51.728;8.748;2024-03-29T07:39:04;98265.44;;;7.37;100.00
34925;BME280;21130;51.728;8.748;2024-03-29T07:41:31;98263.25;;;7.34;100.00
34925;BME280;21130;51.728;8.748;2024-03-29T07:43:59;98268.22;;;7.32;100.00
34925;BME280;21130;51.728;8.748;2024-03-29T07:46:28;98274.59;;;7.32;100.00
34925;BME280;21130;51.728;8.748;2024-03-29T07:48:55;98274.56;;;7.38;100.00
34925;BME280;21130;51.728;8.748;2024-03-29T07:51:22;98275.94;;;7.40;100.00
34925;BME280;21130;51.728;8.748;2024-03-29T07:53:48;98273.44;;;7.44;100.00
34925;BME280;21130;51.728;8.748;2024-03-29T07:56:15;98265.44;;;7.52;100.00
34925;BME280;21130;51.728;8.748;2024-03-29T07:58:42;98268.72;;;7.60;100.00
34925;BME280;21130;51.728;8.748;2024-03-29T08:01:09;98271.75;;;7.68;100.00
34925;BME280;21130;51.728;8.748;2024-03-29T08:03:36;98268.13;;;7.73;100.00
34925;BME280;21130;51.728;8.748;2024-03-29T08:06:03;98270.06;;;7.77;100.00
34925;BME280;21130;51.728;8.748;2024-03-29T08:08:31;98270.31;;;7.81;100.00
34925;BME280;21130;51.728;8.748;2024-03-29T08:10:57;98285.75;;;7.87;100.00
34925;BME280;21130;51.728;8.748;2024-03-29T08:13:25;98282.69;;;7.94;100.00
34925;BME280;21130;51.728;8.748;2024-03-29T08:15:56;98279.09;;;7.98;100.00
34925;BME280;21130;51.728;8.748;2024-03-29T08:18:24;98274.34;;;8.04;100.00
34925;BME280;21130;51.728;8.748;2024-03-29T08:20:53;98272.38;;;8.15;100.00
34925;BME280;21130;51.728;8.748;2024-03-29T08:23:20;98273.41;;;8.29;100.00
34925;BME280;21130;51.728;8.748;2024-03-29T08:25:46;98295.47;;;8.44;100.00
34925;BME280;21130;51.728;8.748;2024-03-29T08:28:14;98299.56;;;8.52;100.00
34925;BME280;21130;51.728;8.748;2024-03-29T08:30:40;98297.06;;;8.56;100.00
34925;BME280;21130;51.728;8.748;2024-03-29T08:33:07;98295.66;;;8.58;100.00
34925;BME280;21130;51.728;8.748;2024-03-29T08:35:35;98302.22;;;8.68;100.00
34925;BME280;21130;51.728;8.748;2024-03-29T08:38:01;98300.81;;;8.70;100.00
34925;BME280;21130;51.728;8.748;2024-03-29T08:40:28;98303.84;;;8.74;100.00
34925;BME280;21130;51.728;8.748;2024-03-29T08:42:57;98308.88;;;8.67;100.00
34925;BME280;21130;51.728;8.748;2024-03-29T08:45:23;98306.94;;;8.67;100.00
34925;BME280;21130;51.728;8.748;2024-03-29T08:47:50;98302.53;;;8.66;100.00
34925;BME280;21130;51.728;8.748;2024-03-29T08:50:16;98295.56;;;8.74;100.00
34925;BME280;21130;51.728;8.748;2024-03-29T08:52:44;98297.72;;;8.82;100.00
34925;BME280;21130;51.728;8.748;2024-03-29T08:55:10;98299.56;;;8.92;100.00
34925;BME280;21130;51.728;8.748;2024-03-29T08:57:37;98296.16;;;9.05;100.00
34925;BME280;21130;51.728;8.748;2024-03-29T09:00:04;98293.34;;;9.10;100.00
34925;BME280;21130;51.728;8.748;2024-03-29T09:02:31;98285.75;;;9.26;100.00
34925;BME280;21130;51.728;8.748;2024-03-29T09:04:59;98293.75;;;9.27;100.00
34925;BME280;21130;51.728;8.748;2024-03-29T09:07:25;98288.91;;;9.43;100.00
34925;BME280;21130;51.728;8.748;2024-03-29T09:09:53;98283.69;;;9.66;100.00
34925;BME280;21130;51.728;8.748;2024-03-29T09:12:20;98280.22;;;9.79;100.00
34925;BME280;21130;51.728;8.748;2024-03-29T09:15:07;98271.91;;;10.03;100.00
34925;BME280;21130;51.728;8.748;2024-03-29T09:17:58;98273.09;;;10.40;100.00
34925;BME280;21130;51.728;8.748;2024-03-29T09:20:56;98278.00;;;10.24;100.00
34925;BME280;21130;51.728;8.748;2024-03-29T09:23:45;98281.66;;;10.20;100.00
34925;BME280;21130;51.728;8.748;2024-03-29T09:26:33;98280.03;;;10.19;100.00
34925;BME280;21130;51.728;8.748;2024-03-29T09:29:20;98283.81;;;10.23;100.00
34925;BME280;21130;51.728;8.748;2024-03-29T09:32:07;98292.34;;;10.31;100.00
34925;BME280;21130;51.728;8.748;2024-03-29T09:34:53;98292.91;;;10.52;100.00
34925;BME280;21130;51.728;8.748;2024-03-29T09:37:41;98301.00;;;10.68;100.00
34925;BME280;21130;51.728;8.748;2024-03-29T09:40:10;98301.56;;;11.02;100.00
34925;BME280;21130;51.728;8.748;2024-03-29T09:42:38;98301.75;;;10.92;100.00
34925;BME280;21130;51.728;8.748;2024-03-29T09:45:06;98296.63;;;10.99;100.00
34925;BME280;21130;51.728;8.748;2024-03-29T09:47:33;98311.50;;;11.09;100.00
34925;BME280;21130;51.728;8.748;2024-03-29T09:50:02;98306.44;;;11.43;100.00
34925;BME280;21130;51.728;8.748;2024-03-29T09:52:31;98302.81;;;11.62;100.00
34925;BME280;21130;51.728;8.748;2024-03-29T09:54:58;98300.16;;;11.84;100.00
34925;BME280;21130;51.728;8.748;2024-03-29T09:57:26;98302.00;;;11.75;100.00
34925;BME280;21130;51.728;8.748;2024-03-29T09:59:56;98313.53;;;11.82;100.00
34925;BME280;21130;51.728;8.748;2024-03-29T10:02:25;98312.88;;;11.58;100.00
34925;BME280;21130;51.728;8.748;2024-03-29T10:04:53;98305.31;;;11.91;100.00
34925;BME280;21130;51.728;8.748;2024-03-29T10:07:22;98303.88;;;12.21;100.00
34925;BME280;21130;51.728;8.748;2024-03-29T10:09:50;98307.72;;;12.39;100.00
34925;BME280;21130;51.728;8.748;2024-03-29T10:12:17;98311.66;;;12.74;100.00
34925;BME280;21130;51.728;8.748;2024-03-29T10:14:45;98317.00;;;12.71;100.00
34925;BME280;21130;51.728;8.748;2024-03-29T10:17:16;98301.59;;;12.65;100.00
34925;BME280;21130;51.728;8.748;2024-03-29T10:19:43;98305.81;;;12.62;100.00
34925;BME280;21130;51.728;8.748;2024-03-29T10:22:10;98305.53;;;12.50;100.00
34925;BME280;21130;51.728;8.748;2024-03-29T10:24:36;98308.06;;;12.60;100.00
34925;BME280;21130;51.728;8.748;2024-03-29T10:27:03;98311.66;;;12.74;100.00
34925;BME280;21130;51.728;8.748;2024-03-29T10:29:31;98315.38;;;12.56;100.00
34925;BME280;21130;51.728;8.748;2024-03-29T10:31:57;98303.44;;;12.56;100.00
34925;BME280;21130;51.728;8.748;2024-03-29T10:34:25;98301.47;;;12.56;100.00
34925;BME280;21130;51.728;8.748;2024-03-29T10:36:52;98306.22;;;12.56;100.00
34925;BME280;21130;51.728;8.748;2024-03-29T10:39:20;98306.56;;;12.54;100.00
34925;BME280;21130;51.728;8.748;2024-03-29T10:41:47;98324.19;;;12.36;100.00
34925;BME280;21130;51.728;8.748;2024-03-29T10:44:14;98318.09;;;12.33;100.00
34925;BME280;21130;51.728;8.748;2024-03-29T10:46:41;98316.75;;;12.31;100.00
34925;BME280;21130;51.728;8.748;2024-03-29T10:49:08;98320.88;;;12.33;100.00
34925;BME280;21130;51.728;8.748;2024-03-29T10:51:38;98341.19;;;12.20;100.00
34925;BME280;21130;51.728;8.748;2024-03-29T10:54:06;98341.09;;;12.25;100.00
34925;BME280;21130;51.728;8.748;2024-03-29T10:56:35;98350.53;;;12.10;100.00
34925;BME280;21130;51.728;8.748;2024-03-29T10:59:05;98343.53;;;12.13;100.00
34925;BME280;21130;51.728;8.748;2024-03-29T11:01:36;98336.25;;;12.17;100.00
34925;BME280;21130;51.728;8.748;2024-03-29T11:04:10;98331.31;;;12.14;100.00
34925;BME280;21130;51.728;8.748;2024-03-29T11:06:41;98336.44;;;12.21;100.00
34925;BME280;21130;51.728;8.748;2024-03-29T11:09:11;98331.50;;;12.31;100.00
34925;BME280;21130;51.728;8.748;2024-03-29T11:11:40;98330.78;;;12.26;100.00
34925;BME280;21130;51.728;8.748;2024-03-29T11:14:13;98341.59;;;12.27;100.00
34925;BME280;21130;51.728;8.748;2024-03-29T11:16:42;98336.88;;;12.42;100.00
34925;BME280;21130;51.728;8.748;2024-03-29T11:19:12;98345.69;;;12.44;100.00
34925;BME280;21130;51.728;8.748;2024-03-29T11:21:41;98341.00;;;12.17;100.00
34925;BME280;21130;51.728;8.748;2024-03-29T11:24:10;98350.03;;;12.22;100.00
34925;BME280;21130;51.728;8.748;2024-03-29T11:26:37;98345.09;;;12.19;100.00
34925;BME280;21130;51.728;8.748;2024-03-29T11:29:03;98348.59;;;12.11;100.00
34925;BME280;21130;51.728;8.748;2024-03-29T11:31:31;98338.50;;;12.15;100.00
34925;BME280;21130;51.728;8.748;2024-03-29T11:34:08;98349.03;;;12.32;100.00
34925;BME280;21130;51.728;8.748;2024-03-29T11:36:35;98332.13;;;12.42;100.00
34925;BME280;21130;51.728;8.748;2024-03-29T11:39:03;98347.88;;;12.47;100.00
34925;BME280;21130;51.728;8.748;2024-03-29T11:41:29;98345.06;;;12.74;100.00
34925;BME280;21130;51.728;8.748;2024-03-29T11:43:57;98343.63;;;12.63;100.00
34925;BME280;21130;51.728;8.748;2024-03-29T11:46:25;98337.75;;;12.51;100.00
34925;BME280;21130;51.728;8.748;2024-03-29T11:48:52;98331.72;;;12.49;100.00
34925;BME280;21130;51.728;8.748;2024-03-29T11:51:20;98338.09;;;12.49;100.00
34925;BME280;21130;51.728;8.748;2024-03-29T11:53:49;98348.69;;;12.47;100.00
34925;BME280;21130;51.728;8.748;2024-03-29T11:56:18;98340.13;;;12.44;100.00
34925;BME280;21130;51.728;8.748;2024-03-29T11:58:46;98331.88;;;12.66;100.00
34925;BME280;21130;51.728;8.748;2024-03-29T12:01:13;98334.69;;;12.89;100.00
34925;BME280;21130;51.728;8.748;2024-03-29T12:03:41;98341.47;;;13.10;100.00
34925;BME280;21130;51.728;8.748;2024-03-29T12:06:08;98331.13;;;13.11;100.00
34925;BME280;21130;51.728;8.748;2024-03-29T12:08:38;98330.88;;;13.35;100.00
34925;BME280;21130;51.728;8.748;2024-03-29T12:11:05;98334.97;;;13.01;100.00
34925;BME280;21130;51.728;8.748;2024-03-29T12:13:33;98342.94;;;12.94;100.00
34925;BME280;21130;51.728;8.748;2024-03-29T12:16:00;98356.91;;;13.16;100.00
34925;BME280;21130;51.728;8.748;2024-03-29T12:18:27;98368.91;;;13.03;100.00
34925;BME280;21130;51.728;8.748;2024-03-29T12:20:55;98358.75;;;12.85;100.00
34925;BME280;21130;51.728;8.748;2024-03-29T12:23:21;98369.72;;;13.04;100.00
34925;BME280;21130;51.728;8.748;2024-03-29T12:25:58;98368.94;;;13.26;100.00
34925;BME280;21130;51.728;8.748;2024-03-29T12:28:26;98365.38;;;13.11;100.00
34925;BME280;21130;51.728;8.748;2024-03-29T12:30:54;98350.50;;;13.30;100.00
34925;BME280;21130;51.728;8.748;2024-03-29T12:33:22;98334.81;;;13.88;100.00
34925;BME280;21130;51.728;8.748;2024-03-29T12:35:50;98348.66;;;14.01;100.00
34925;BME280;21130;51.728;8.748;2024-03-29T12:38:19;98360.81;;;14.05;100.00
34925;BME280;21130;51.728;8.748;2024-03-29T12:40:46;98362.28;;;14.03;100.00
34925;BME280;21130;51.728;8.748;2024-03-29T12:43:15;98373.97;;;14.14;100.00
34925;BME280;21130;51.728;8.748;2024-03-29T12:45:43;98384.00;;;14.15;100.00
34925;BME280;21130;51.728;8.748;2024-03-29T12:48:11;98402.16;;;14.03;100.00
34925;BME280;21130;51.728;8.748;2024-03-29T12:50:40;98406.41;;;13.78;100.00
34925;BME280;21130;51.728;8.748;2024-03-29T12:53:08;98408.44;;;13.64;100.00
34925;BME280;21130;51.728;8.748;2024-03-29T12:55:35;98397.75;;;13.21;100.00
34925;BME280;21130;51.728;8.748;2024-03-29T12:58:05;98394.75;;;13.54;100.00
34925;BME280;21130;51.728;8.748;2024-03-29T13:00:34;98400.28;;;13.45;100.00
34925;BME280;21130;51.728;8.748;2024-03-29T13:03:01;98407.25;;;13.56;100.00